Laguna Yema, Argentina
Current Conditions -  °F | °C
As of 8:00 PM on Saturday 25 Oct 2014 (Local Time) from SLYA Reporting Station
Clear Clear  
Wind Chill: 81°   Ceiling: Unl
Heat Index: 85°   Visibility: 6mi
Dew Point: 72°   Wind: 0mph
Humidity: 74%   Direction: NA
Pressure: 29.83"   Gusts: NA
Location:  24.25°S, 61.25°W
Report Text: SLYA 252300Z 00000KT 9999 NSC 27/22 Q1010
Loading
Personal Weather Stations






























Interactive Weather Map
Tropical Storm Tracking
New forecast layout! Learn more

10-Day Weather Forecast

Advertisements
Track Severe Weather on mobile